YAT weather

Attawapiskat Airport
Attawapiskat, Ontario, Canada

Public forecast

Using degrees Celsius for public forecast. Weather courtesy of forecast.io.

METAR (pilot weather report)

Retrieved 2019/01/17 08:00 UTC (39 minutes ago):

CYAT 170800Z AUTO 25006KT 9SM FEW044 BKN050 M31/M34 A3010 RMK SLP196

TAF (pilot weather forecast)

Forecast is more than 12 hours old.

Retrieved 2019/01/16 14:00 UTC (19 hours ago):

TAF CYAT 161339Z 1614/1620 31010G20KT P6SM SKC RMK FCST BASED ON AUTO OBS. NXT FCST WILL BE ISSUED AT 170945Z